Time;durP1;ratioP1;P1;durP2;ratioP2;P2;SDS_P1;SDS_P2;PMS_P1;PMS_P2;Temp;Humidity;BMP_temperature;BMP_pressure;BME280_temperature;BME280_humidity;BME280_pressure;Samples;Min_cycle;Max_cycle;Signal;HPM_P1;HPM_P2
2022/08/28 00:02:14;;;;;;;;;12.00;10.00;;;;;18.86;57.31;101231.22;5020735;28;45537;-74
2022/08/28 00:04:39;;;;;;;;;11.67;11.33;;;;;18.81;57.09;101231.88;5016797;28;46205;-74
2022/08/28 00:07:05;;;;;;;;;12.00;12.00;;;;;18.79;56.73;101234.78;5029379;28;45259;-74
2022/08/28 00:09:31;;;;;;;;;10.33;10.33;;;;;18.78;56.79;101235.84;5031972;28;45399;-75
2022/08/28 00:11:56;;;;;;;;;10.67;10.67;;;;;18.72;57.08;101235.88;5043700;27;46106;-75
2022/08/28 00:14:22;;;;;;;;;9.00;9.00;;;;;18.71;56.81;101235.06;5018927;28;45447;-74
2022/08/28 00:16:48;;;;;;;;;11.00;11.00;;;;;18.71;57.23;101237.75;5025016;28;45382;-75
2022/08/28 00:19:16;;;;;;;;;10.67;10.00;;;;;18.64;56.85;101221.63;5020440;28;45356;-74
2022/08/28 00:21:43;;;;;;;;;11.67;10.00;;;;;18.64;57.17;101223.47;5016867;28;45479;-74
2022/08/28 00:24:08;;;;;;;;;12.00;10.00;;;;;18.65;57.16;101234.03;5016057;28;45304;-75
2022/08/28 00:29:18;;;;;;;;;11.33;11.00;;;;;18.54;57.41;101222.09;5016648;28;45467;-74
2022/08/28 00:31:43;;;;;;;;;10.00;9.33;;;;;18.57;57.16;101230.78;5016207;28;45529;-74
2022/08/28 00:34:09;;;;;;;;;12.00;11.00;;;;;18.54;57.70;101226.66;5016480;28;46024;-74
2022/08/28 00:36:36;;;;;;;;;10.00;9.33;;;;;18.52;57.86;101232.25;5029068;28;45363;-74
2022/08/28 00:39:03;;;;;;;;;11.00;11.00;;;;;18.51;57.87;101238.69;5016715;28;45384;-74
2022/08/28 00:41:30;;;;;;;;;8.00;8.00;;;;;18.46;58.15;101232.31;5016328;28;45350;-74
2022/08/28 00:44:10;;;;;;;;;14.00;13.00;;;;;18.45;58.16;101239.53;5033719;28;47912;-74
2022/08/28 00:46:37;;;;;;;;;11.00;11.00;;;;;18.39;58.46;101225.09;5022854;28;45334;-75
2022/08/28 00:49:04;;;;;;;;;14.00;11.33;;;;;18.35;58.31;101233.81;5016336;28;45164;-74
2022/08/28 00:54:13;;;;;;;;;11.00;10.67;;;;;18.36;58.27;101243.50;5016027;28;45408;-74
2022/08/28 00:56:40;;;;;;;;;7.33;7.33;;;;;18.32;58.54;101236.91;5016113;28;45284;-75
2022/08/28 00:59:14;;;;;;;;;11.00;11.00;;;;;18.34;58.37;101241.03;5032971;28;45383;-74
2022/08/28 01:01:40;;;;;;;;;12.00;12.00;;;;;18.35;58.43;101247.25;5024932;28;45437;-75
2022/08/28 01:04:06;;;;;;;;;9.33;8.67;;;;;18.28;58.74;101233.81;5028598;28;47325;-74
2022/08/28 01:06:34;;;;;;;;;11.67;11.67;;;;;18.31;58.87;101241.47;5016049;28;45280;-75
2022/08/28 01:08:59;;;;;;;;;11.67;11.00;;;;;18.24;58.52;101243.34;5015807;28;45325;-74
2022/08/28 01:11:27;;;;;;;;;10.00;10.00;;;;;18.24;58.50;101241.50;5015843;28;45302;-75
2022/08/28 01:13:57;;;;;;;;;10.00;9.67;;;;;18.19;58.79;101235.94;5016033;28;45356;-74
2022/08/28 01:16:23;;;;;;;;;10.33;10.33;;;;;18.19;58.79;101238.63;5015934;28;45734;-74
2022/08/28 01:18:51;;;;;;;;;13.33;13.00;;;;;18.22;59.05;101238.19;5015800;28;45405;-74
2022/08/28 01:21:36;;;;;;;;;12.00;12.00;;;;;18.20;59.05;101242.16;5015752;28;45304;-74
2022/08/28 01:24:08;;;;;;;;;13.00;13.00;;;;;18.12;59.39;101230.59;5027381;28;48132;-74
2022/08/28 01:26:34;;;;;;;;;13.33;13.33;;;;;18.12;59.66;101225.22;5033481;28;45373;-75
2022/08/28 01:29:00;;;;;;;;;13.67;12.00;;;;;18.11;59.32;101231.59;5022706;28;45352;-75
2022/08/28 01:31:28;;;;;;;;;12.67;12.67;;;;;18.10;59.56;101238.03;5021291;28;45559;-75
2022/08/28 01:33:53;;;;;;;;;10.00;10.00;;;;;18.05;59.27;101219.00;5018753;28;45559;-74
2022/08/28 01:36:19;;;;;;;;;14.67;13.67;;;;;18.05;59.42;101229.75;5018556;28;45255;-74
2022/08/28 01:38:51;;;;;;;;;12.00;12.00;;;;;18.02;59.46;101231.00;5032145;28;45424;-74
2022/08/28 01:41:18;;;;;;;;;10.33;10.33;;;;;18.02;59.82;101225.59;5017301;28;46399;-74
2022/08/28 01:43:43;;;;;;;;;14.00;13.33;;;;;17.96;59.71;101218.38;5018315;28;45610;-75
2022/08/28 01:46:11;;;;;;;;;13.00;13.00;;;;;17.95;60.11;101214.06;5018733;28;45313;-74
2022/08/28 01:48:41;;;;;;;;;11.67;11.67;;;;;17.92;59.50;101219.84;5031123;28;45380;-75
2022/08/28 01:51:07;;;;;;;;;11.00;11.00;;;;;17.84;60.25;101202.09;5018516;28;45459;-74
2022/08/28 01:53:33;;;;;;;;;17.33;14.33;;;;;17.83;60.42;101205.81;5018158;28;45239;-74
2022/08/28 01:56:01;;;;;;;;;18.33;17.67;;;;;17.79;60.14;101204.59;5018444;28;45586;-74
2022/08/28 01:58:27;;;;;;;;;17.00;15.67;;;;;17.83;60.40;101218.44;5018081;28;45432;-74
2022/08/28 02:00:53;;;;;;;;;18.00;18.00;;;;;17.86;60.27;101212.63;5031946;28;45593;-75
2022/08/28 02:03:19;;;;;;;;;15.33;14.00;;;;;17.91;60.29;101223.59;5016722;28;48404;-74
2022/08/28 02:05:44;;;;;;;;;16.00;16.00;;;;;17.91;60.20;101224.44;5016994;28;45763;-75
2022/08/28 02:08:10;;;;;;;;;15.00;15.00;;;;;17.94;60.18;101225.84;5018302;28;45436;-74
2022/08/28 02:10:37;;;;;;;;;16.00;16.00;;;;;17.94;60.14;101211.59;5106201;27;45371;-74
2022/08/28 02:13:04;;;;;;;;;16.00;16.00;;;;;17.98;59.94;101219.00;5018083;28;46275;-74
2022/08/28 02:15:31;;;;;;;;;12.00;12.00;;;;;18.00;59.95;101214.25;5018130;28;45398;-74
2022/08/28 02:17:57;;;;;;;;;16.67;16.00;;;;;18.07;60.31;101222.28;5035834;28;45547;-74
2022/08/28 02:20:23;;;;;;;;;18.33;18.33;;;;;18.08;60.08;101225.81;5026894;28;45410;-75
2022/08/28 02:22:48;;;;;;;;;17.00;16.67;;;;;18.06;60.03;101217.97;5030410;28;46925;-75
2022/08/28 02:25:15;;;;;;;;;15.67;15.67;;;;;18.07;60.14;101221.47;5023312;28;45397;-74
2022/08/28 02:27:41;;;;;;;;;17.00;17.00;;;;;18.10;59.87;101223.72;5026932;28;45305;-74
2022/08/28 02:30:10;;;;;;;;;13.00;13.00;;;;;18.07;60.40;101222.28;5030730;28;46242;-74
2022/08/28 02:32:35;;;;;;;;;15.00;15.00;;;;;18.08;60.12;101226.63;5017616;28;45287;-75
2022/08/28 02:35:01;;;;;;;;;15.00;14.00;;;;;18.06;59.92;101223.34;5017709;28;45446;-75
2022/08/28 02:37:26;;;;;;;;;16.67;16.33;;;;;18.02;60.15;101219.44;5025707;28;45418;-75
2022/08/28 02:39:56;;;;;;;;;15.00;15.00;;;;;18.04;59.80;101226.22;5036726;28;46074;-74
2022/08/28 02:42:22;;;;;;;;;15.00;15.00;;;;;17.99;59.91;101225.22;5017759;28;45396;-75
2022/08/28 02:44:47;;;;;;;;;16.33;14.00;;;;;18.00;60.14;101219.63;5018029;28;45365;-74
2022/08/28 02:47:14;;;;;;;;;15.00;15.00;;;;;17.96;60.15;101226.44;5021940;28;45328;-75
2022/08/28 02:49:40;;;;;;;;;14.67;14.67;;;;;17.94;60.29;101223.16;5027466;28;45271;-74
2022/08/28 02:52:06;;;;;;;;;16.33;15.67;;;;;17.95;60.53;101224.81;5017528;28;46193;-74
2022/08/28 02:54:31;;;;;;;;;16.33;16.33;;;;;17.94;60.38;101228.53;5017666;28;45388;-74
2022/08/28 02:56:57;;;;;;;;;14.00;14.00;;;;;17.93;60.85;101221.53;5017525;28;45560;-75
2022/08/28 02:59:23;;;;;;;;;14.67;14.67;;;;;17.91;60.84;101212.84;5039413;28;46134;-74
2022/08/28 03:01:49;;;;;;;;;16.00;14.67;;;;;17.86;60.97;101213.47;5025091;28;46267;-74
2022/08/28 03:04:15;;;;;;;;;13.67;13.67;;;;;17.79;60.79;101196.53;5017547;28;45330;-74
2022/08/28 03:06:40;;;;;;;;;16.67;15.33;;;;;17.83;61.06;101215.75;5017878;28;45477;-74
2022/08/28 03:09:06;;;;;;;;;15.67;15.67;;;;;17.78;60.97;101194.91;5017321;28;45495;-74
2022/08/28 03:11:32;;;;;;;;;11.67;11.67;;;;;17.85;61.19;101202.94;5017483;28;45363;-75
2022/08/28 03:13:58;;;;;;;;;15.67;15.33;;;;;17.82;61.34;101196.13;5030268;28;45794;-74
2022/08/28 03:16:24;;;;;;;;;16.00;15.00;;;;;17.82;61.67;101204.19;5017999;28;45291;-74
2022/08/28 03:18:50;;;;;;;;;13.00;13.00;;;;;17.82;61.16;101201.50;5017471;28;45238;-74
2022/08/28 03:21:15;;;;;;;;;13.00;13.00;;;;;17.79;61.43;101199.22;5031202;28;47173;-74
2022/08/28 03:23:41;;;;;;;;;16.67;16.00;;;;;17.82;61.49;101217.63;5017328;28;45300;-74
2022/08/28 03:26:10;;;;;;;;;13.67;13.33;;;;;17.82;61.47;101214.94;5032496;28;45300;-74
2022/08/28 03:28:40;;;;;;;;;15.00;15.00;;;;;17.77;61.44;101204.81;5018132;28;45541;-74
2022/08/28 03:31:07;;;;;;;;;12.67;12.67;;;;;17.77;61.35;101198.59;5017157;28;45302;-74
2022/08/28 03:33:33;;;;;;;;;16.33;16.33;;;;;17.77;61.67;101206.66;5033305;28;45974;-75
2022/08/28 03:35:59;;;;;;;;;13.67;13.33;;;;;17.80;61.25;101206.25;5027612;28;45350;-75
2022/08/28 03:38:25;;;;;;;;;16.67;16.00;;;;;17.75;62.12;101200.69;5016837;28;45547;-75
2022/08/28 03:40:50;;;;;;;;;15.33;13.33;;;;;17.71;61.51;101199.44;5023338;28;47087;-74
2022/08/28 03:43:18;;;;;;;;;15.00;15.00;;;;;17.70;61.93;101198.63;5023498;28;45334;-74
2022/08/28 03:45:58;;;;;;;;;14.00;14.00;;;;;17.69;62.09;101210.41;5017475;28;45295;-73
2022/08/28 03:48:37;;;;;;;;;14.00;14.00;;;;;17.67;62.41;101209.81;5015408;28;46246;-75
2022/08/28 03:51:07;;;;;;;;;13.67;13.33;;;;;17.65;62.50;101214.56;5016910;28;46654;-75
2022/08/28 03:53:33;;;;;;;;;14.00;14.00;;;;;17.63;62.28;101212.06;5046151;28;45393;-74
2022/08/28 03:55:58;;;;;;;;;15.67;14.67;;;;;17.61;62.18;101211.47;5016424;28;45622;-75
2022/08/28 03:58:25;;;;;;;;;16.33;16.00;;;;;17.59;62.48;101207.31;5016582;28;45338;-74
2022/08/28 04:00:50;;;;;;;;;14.67;14.00;;;;;17.56;62.75;101197.81;5016933;28;45378;-75
2022/08/28 04:03:17;;;;;;;;;14.00;13.00;;;;;17.55;62.74;101209.63;5016534;28;45318;-74
2022/08/28 04:05:44;;;;;;;;;14.33;14.33;;;;;17.54;62.49;101208.78;5016886;28;45491;-74
2022/08/28 04:08:14;;;;;;;;;15.33;13.00;;;;;17.50;62.96;101204.03;5016780;28;45720;-74
2022/08/28 04:10:41;;;;;;;;;13.00;13.00;;;;;17.47;62.83;101210.66;5016338;28;46157;-75
2022/08/28 04:13:07;;;;;;;;;14.00;12.33;;;;;17.42;63.11;101205.09;5016861;28;45355;-74
2022/08/28 04:15:33;;;;;;;;;18.00;16.00;;;;;17.39;63.76;101211.69;5016809;28;45452;-74
2022/08/28 04:17:59;;;;;;;;;11.00;11.00;;;;;17.33;63.58;101196.41;5016953;28;45172;-75
2022/08/28 04:20:25;;;;;;;;;12.33;12.33;;;;;17.31;63.89;101203.03;5023560;28;47998;-74
2022/08/28 04:22:51;;;;;;;;;16.00;14.00;;;;;17.28;64.08;101212.34;5015114;28;45247;-74
2022/08/28 04:25:16;;;;;;;;;12.00;12.00;;;;;17.19;63.63;101209.03;5022283;28;45282;-74
2022/08/28 04:27:42;;;;;;;;;16.00;14.33;;;;;17.14;64.01;101206.97;5025108;28;45529;-74
2022/08/28 04:30:08;;;;;;;;;12.67;12.67;;;;;17.15;63.85;101221.25;5019869;28;47858;-74
2022/08/28 04:32:35;;;;;;;;;13.00;13.00;;;;;17.04;64.12;101218.06;5034958;28;46384;-75
2022/08/28 04:35:01;;;;;;;;;15.00;15.00;;;;;16.99;64.55;101220.56;5019299;28;45438;-74
2022/08/28 04:37:26;;;;;;;;;13.00;13.00;;;;;17.05;64.79;101232.34;5022445;28;45967;-75
2022/08/28 04:39:52;;;;;;;;;14.00;14.00;;;;;16.99;64.46;101222.41;5023359;28;45369;-75
2022/08/28 04:42:17;;;;;;;;;14.00;14.00;;;;;17.00;65.00;101218.72;5016224;28;45337;-75
2022/08/28 04:44:43;;;;;;;;;17.33;17.33;;;;;16.95;64.72;101223.88;5026872;28;45403;-74
2022/08/28 04:47:08;;;;;;;;;15.00;15.00;;;;;16.92;65.17;101227.78;5018303;28;45332;-74
2022/08/28 04:49:34;;;;;;;;;15.67;14.33;;;;;16.90;65.64;101237.91;5016405;28;46330;-74
2022/08/28 04:52:00;;;;;;;;;13.33;13.00;;;;;16.85;65.41;101226.97;5016323;28;45157;-75
2022/08/28 04:54:25;;;;;;;;;17.67;17.33;;;;;16.85;65.80;101237.69;5019296;28;45252;-74
2022/08/28 04:56:51;;;;;;;;;16.33;15.67;;;;;16.87;65.84;101241.00;5015949;28;45433;-74
2022/08/28 04:59:16;;;;;;;;;16.67;16.67;;;;;16.82;65.76;101236.22;5015895;28;45150;-75
2022/08/28 05:01:42;;;;;;;;;13.67;13.67;;;;;16.83;65.78;101239.75;5016116;28;45209;-75
2022/08/28 05:04:10;;;;;;;;;15.00;15.00;;;;;16.76;66.11;101242.44;5029012;28;45356;-75
2022/08/28 05:06:42;;;;;;;;;16.00;14.33;;;;;16.79;65.95;101250.06;5016701;28;45403;-74
2022/08/28 05:09:08;;;;;;;;;14.00;14.00;;;;;16.77;65.85;101252.13;5031535;28;47151;-74
2022/08/28 05:11:33;;;;;;;;;16.67;15.67;;;;;16.74;66.51;101256.06;5018914;28;45570;-74
2022/08/28 05:13:59;;;;;;;;;15.00;14.33;;;;;16.71;66.26;101247.56;5019027;28;45375;-74
2022/08/28 05:16:25;;;;;;;;;14.67;14.67;;;;;16.70;66.91;101252.09;5018939;28;45324;-75
2022/08/28 05:18:50;;;;;;;;;14.33;14.33;;;;;16.68;66.66;101251.50;5030008;28;47100;-74
2022/08/28 05:21:21;;;;;;;;;16.33;16.00;;;;;16.71;66.58;101253.78;5020078;28;45337;-75
2022/08/28 05:23:48;;;;;;;;;11.67;11.33;;;;;16.71;66.70;101261.84;5019070;28;45289;-74
2022/08/28 05:26:15;;;;;;;;;14.67;14.67;;;;;16.70;66.77;101252.09;5032031;28;45297;-75
2022/08/28 05:28:40;;;;;;;;;13.00;13.00;;;;;16.68;67.07;101256.03;5018861;28;46355;-74
2022/08/28 05:31:12;;;;;;;;;12.00;11.00;;;;;16.68;67.54;101258.72;5028924;28;45334;-75
2022/08/28 05:33:37;;;;;;;;;13.00;13.00;;;;;16.69;67.73;101266.56;5020403;28;45286;-74
2022/08/28 05:36:05;;;;;;;;;10.00;10.00;;;;;16.72;67.63;101271.53;5018567;28;45546;-74
2022/08/28 05:38:31;;;;;;;;;12.67;12.67;;;;;16.74;67.46;101274.00;5034407;28;47718;-74
2022/08/28 05:40:57;;;;;;;;;14.00;13.33;;;;;16.73;67.48;101267.00;5017299;28;46660;-74
2022/08/28 05:43:24;;;;;;;;;13.00;13.00;;;;;16.77;67.69;101273.59;5018562;28;45319;-74
2022/08/28 05:46:09;;;;;;;;;17.67;17.67;;;;;16.78;67.58;101275.25;5018665;28;45343;-75
2022/08/28 05:48:35;;;;;;;;;17.00;15.67;;;;;16.84;67.58;101274.44;5018300;28;45504;-74
2022/08/28 05:51:13;;;;;;;;;20.00;19.00;;;;;16.83;67.84;101274.66;5018476;28;45306;-75
2022/08/28 05:53:40;;;;;;;;;22.33;21.00;;;;;16.88;67.77;101273.00;5018279;28;45285;-74
2022/08/28 05:56:18;;;;;;;;;20.33;19.33;;;;;16.89;67.98;101274.69;5018253;28;45327;-74
2022/08/28 05:58:44;;;;;;;;;19.00;17.33;;;;;16.97;67.77;101272.81;5018225;28;45428;-74
2022/08/28 06:01:17;;;;;;;;;14.67;14.67;;;;;17.05;67.76;101275.31;5018160;28;45259;-74
2022/08/28 06:03:50;;;;;;;;;16.00;15.67;;;;;17.08;67.32;101269.56;5018588;28;45460;-74
2022/08/28 06:06:15;;;;;;;;;14.00;14.00;;;;;17.12;67.46;101278.84;5023829;28;46224;-74
2022/08/28 06:08:41;;;;;;;;;13.67;13.00;;;;;17.14;67.30;101275.97;5033294;28;48190;-74
2022/08/28 06:11:07;;;;;;;;;15.67;15.67;;;;;17.19;67.41;101269.97;5018023;28;45836;-75
2022/08/28 06:13:34;;;;;;;;;15.33;15.33;;;;;17.27;67.40;101275.97;5028267;28;45374;-74
2022/08/28 06:15:59;;;;;;;;;20.33;18.00;;;;;17.31;67.56;101275.56;5021238;28;45476;-75
2022/08/28 06:18:25;;;;;;;;;14.33;14.33;;;;;17.38;67.39;101279.91;5026407;28;48336;-76
2022/08/28 06:20:52;;;;;;;;;16.33;16.33;;;;;17.45;67.02;101287.16;5018289;28;45280;-76
2022/08/28 06:23:19;;;;;;;;;17.67;16.33;;;;;17.50;66.98;101282.78;5018025;28;45429;-76
2022/08/28 06:25:47;;;;;;;;;13.33;13.33;;;;;17.54;67.10;101285.91;5027254;28;45327;-76
2022/08/28 06:28:18;;;;;;;;;19.00;18.00;;;;;17.61;66.87;101283.19;5034567;28;47038;-76
2022/08/28 06:30:44;;;;;;;;;15.33;15.33;;;;;17.64;66.88;101282.78;5018104;28;45494;-76
2022/08/28 06:33:11;;;;;;;;;13.00;12.00;;;;;17.70;66.75;101283.81;5017880;28;45367;-76
2022/08/28 06:35:40;;;;;;;;;14.00;12.33;;;;;17.74;67.26;101285.88;5018090;28;45353;-76
2022/08/28 06:38:07;;;;;;;;;12.67;12.33;;;;;17.82;67.07;101284.84;5028952;28;46022;-77
2022/08/28 06:40:41;;;;;;;;;11.00;11.00;;;;;17.89;67.17;101290.19;5018421;28;45477;-74
2022/08/28 06:43:06;;;;;;;;;13.33;13.33;;;;;17.94;66.51;101290.38;5027587;28;45296;-75
2022/08/28 06:45:32;;;;;;;;;11.67;11.67;;;;;18.02;66.60;101283.97;5027749;28;45433;-75
2022/08/28 06:47:57;;;;;;;;;11.67;11.00;;;;;18.07;66.40;101281.44;5017773;28;45527;-75
2022/08/28 06:50:23;;;;;;;;;14.67;12.67;;;;;18.15;66.46;101291.19;5017976;28;45416;-75
2022/08/28 06:52:48;;;;;;;;;13.33;13.33;;;;;18.16;66.17;101274.84;5030179;27;45458;-76
2022/08/28 06:55:14;;;;;;;;;12.00;11.00;;;;;18.23;66.19;101285.56;5021636;28;45446;-75
2022/08/28 06:57:39;;;;;;;;;13.00;13.00;;;;;18.26;66.69;101273.56;5017565;28;45327;-76
2022/08/28 07:00:05;;;;;;;;;14.00;12.00;;;;;18.34;66.63;101284.09;5017789;28;45259;-75
2022/08/28 07:02:31;;;;;;;;;11.67;10.67;;;;;18.37;66.43;101285.50;5031826;28;45358;-76
2022/08/28 07:04:56;;;;;;;;;15.00;14.00;;;;;18.40;66.10;101280.53;5017561;28;45568;-76
2022/08/28 07:07:22;;;;;;;;;13.00;12.00;;;;;18.43;66.03;101284.66;5030854;28;48106;-75
2022/08/28 07:09:47;;;;;;;;;14.67;13.67;;;;;18.53;66.45;101284.22;5025607;28;45336;-76
2022/08/28 07:12:17;;;;;;;;;13.00;12.33;;;;;18.57;66.38;101290.00;5018559;28;45207;-75
2022/08/28 07:14:43;;;;;;;;;14.67;14.00;;;;;18.62;66.20;101288.28;5022903;28;45664;-76
2022/08/28 07:17:09;;;;;;;;;13.33;12.33;;;;;18.71;66.18;101288.06;5027580;28;47106;-75
2022/08/28 07:19:35;;;;;;;;;13.33;11.00;;;;;18.75;66.42;101283.91;5035598;28;45365;-75
2022/08/28 07:22:00;;;;;;;;;12.67;12.67;;;;;18.84;66.34;101288.00;5017675;28;45353;-77
2022/08/28 07:24:28;;;;;;;;;14.00;13.00;;;;;18.96;65.69;101298.06;5016994;28;46025;-75
2022/08/28 07:26:54;;;;;;;;;14.00;14.00;;;;;19.02;65.71;101294.50;5031142;28;45703;-75
2022/08/28 07:29:19;;;;;;;;;14.67;13.00;;;;;19.07;65.57;101293.84;5025767;28;45255;-76
2022/08/28 07:31:50;;;;;;;;;12.33;12.33;;;;;19.11;65.66;101295.09;5020090;28;45325;-76
2022/08/28 07:34:18;;;;;;;;;13.67;13.67;;;;;19.17;65.27;101295.06;5017261;28;45515;-76
2022/08/28 07:36:44;;;;;;;;;12.33;11.00;;;;;19.32;65.70;101302.00;5016942;28;46423;-77
2022/08/28 07:39:11;;;;;;;;;13.00;13.00;;;;;19.39;65.22;101304.63;5016853;28;45752;-78
2022/08/28 07:41:39;;;;;;;;;19.00;16.33;;;;;19.45;64.97;101300.25;5017074;28;45210;-76
2022/08/28 07:46:56;;;;;;;;;12.00;12.00;;;;;19.58;64.67;101304.69;5021973;28;45874;-76
2022/08/28 07:49:23;;;;;;;;;12.67;12.00;;;;;19.61;64.63;101306.94;5023593;28;46015;-74
2022/08/28 07:51:48;;;;;;;;;13.67;12.67;;;;;19.67;64.40;101306.84;5022963;28;45435;-75
2022/08/28 07:54:14;;;;;;;;;13.67;13.00;;;;;19.68;64.64;101307.69;5029770;28;46263;-75
2022/08/28 07:56:39;;;;;;;;;12.00;12.00;;;;;19.79;64.65;101301.56;5026699;28;45897;-74
2022/08/28 07:59:06;;;;;;;;;15.00;14.67;;;;;19.78;64.38;101288.28;5024859;28;45398;-74
2022/08/28 08:01:38;;;;;;;;;13.33;13.33;;;;;19.92;64.13;101307.88;5032111;28;45542;-75
2022/08/28 08:04:06;;;;;;;;;13.33;13.00;;;;;19.98;63.99;101311.53;5017828;28;46147;-75
2022/08/28 08:06:32;;;;;;;;;14.67;14.67;;;;;20.02;63.68;101313.59;5016356;28;46604;-75
2022/08/28 08:08:58;;;;;;;;;12.67;12.67;;;;;20.05;64.19;101309.63;5020945;28;45402;-75
2022/08/28 08:11:25;;;;;;;;;12.00;12.00;;;;;20.10;63.77;101299.00;5032996;28;45416;-75
2022/08/28 08:13:50;;;;;;;;;13.00;12.00;;;;;20.22;63.78;101309.88;5034618;28;46816;-75
2022/08/28 08:16:19;;;;;;;;;13.67;13.00;;;;;20.28;63.67;101303.56;5031558;28;46964;-75
2022/08/28 08:18:49;;;;;;;;;14.00;14.00;;;;;20.37;63.47;101309.47;5027723;28;45302;-75
2022/08/28 08:21:18;;;;;;;;;13.67;12.67;;;;;20.48;63.14;101320.56;5016711;28;45348;-75
2022/08/28 08:23:44;;;;;;;;;12.67;12.67;;;;;20.51;62.79;101315.56;5016513;28;45423;-75
2022/08/28 08:26:12;;;;;;;;;18.67;15.33;;;;;20.58;62.93;101317.31;5025283;28;48213;-75
2022/08/28 08:28:39;;;;;;;;;13.67;13.00;;;;;20.62;62.57;101323.94;5016467;28;45368;-75
2022/08/28 08:31:08;;;;;;;;;11.33;11.33;;;;;20.71;62.65;101322.53;5016365;28;45235;-76
2022/08/28 08:33:37;;;;;;;;;13.00;13.00;;;;;20.78;62.45;101322.47;5032977;28;46244;-76
2022/08/28 08:36:03;;;;;;;;;13.00;11.00;;;;;20.84;62.80;101321.56;5026249;28;45949;-75
2022/08/28 08:38:29;;;;;;;;;14.33;13.00;;;;;20.91;62.22;101316.91;5015626;28;45330;-76
2022/08/28 08:40:55;;;;;;;;;13.00;12.33;;;;;21.00;61.99;101317.41;5023051;28;45323;-75
2022/08/28 08:43:22;;;;;;;;;15.67;15.00;;;;;21.07;61.85;101314.59;5021780;28;45412;-75
2022/08/28 08:45:49;;;;;;;;;16.67;14.67;;;;;21.16;62.22;101321.31;5016185;28;46365;-75
2022/08/28 08:48:30;;;;;;;;;12.00;12.00;;;;;21.27;61.58;101325.09;5027401;28;45431;-75
2022/08/28 08:51:05;;;;;;;;;14.00;14.00;;;;;21.30;61.21;101316.53;5029684;28;45267;-75
2022/08/28 08:53:49;;;;;;;;;12.00;11.00;;;;;21.36;61.06;101309.38;5015925;28;45296;-75
2022/08/28 08:56:16;;;;;;;;;14.00;14.00;;;;;21.53;61.00;101322.19;5016085;28;45302;-75
2022/08/28 08:58:46;;;;;;;;;13.00;12.00;;;;;21.62;60.65;101319.97;5015791;28;45220;-75
2022/08/28 09:01:12;;;;;;;;;17.33;16.00;;;;;21.68;60.82;101317.16;5016274;28;45302;-75
2022/08/28 09:04:09;;;;;;;;;13.33;13.33;;;;;21.75;60.07;101313.50;5016058;28;45441;-74
2022/08/28 09:06:43;;;;;;;;;13.33;13.33;;;;;21.83;60.18;101310.47;5034750;28;45438;-75
2022/08/28 09:09:32;;;;;;;;;12.67;12.67;;;;;21.91;59.77;101314.72;5028052;28;46331;-75
2022/08/28 09:12:02;;;;;;;;;14.33;12.67;;;;;22.01;60.51;101308.69;5026643;28;45352;-75
2022/08/28 09:14:48;;;;;;;;;14.33;14.33;;;;;22.08;59.37;101301.25;5017131;28;45303;-76
2022/08/28 09:17:18;;;;;;;;;13.00;13.00;;;;;22.15;59.70;101301.94;5015977;28;45276;-76
2022/08/28 09:19:44;;;;;;;;;12.67;11.67;;;;;22.22;59.46;101296.41;5013988;28;45418;-76
2022/08/28 09:22:09;;;;;;;;;15.00;15.00;;;;;22.26;58.60;101291.31;5015452;28;45312;-75
2022/08/28 09:24:38;;;;;;;;;15.67;14.67;;;;;22.37;58.74;101297.78;5030382;28;46087;-76
2022/08/28 09:27:07;;;;;;;;;14.00;12.33;;;;;22.48;58.93;101296.94;5015170;28;47214;-75
2022/08/28 09:29:37;;;;;;;;;14.33;13.00;;;;;22.61;58.04;101298.53;5023079;28;45502;-76
2022/08/28 09:32:22;;;;;;;;;15.00;14.00;;;;;22.75;58.05;101290.13;5015522;28;45406;-75
2022/08/28 09:35:26;;;;;;;;;16.67;16.00;;;;;22.88;58.12;101297.94;5015142;28;45480;-75
2022/08/28 09:37:52;;;;;;;;;15.00;13.67;;;;;22.91;57.22;101286.63;5032525;28;45462;-76
2022/08/28 09:43:25;;;;;;;;;15.67;15.00;;;;;23.00;57.59;101289.75;5034849;28;45491;-78
2022/08/28 09:43:25;;;;;;;;;11.00;10.33;;;;;23.10;56.90;101299.13;5032758;28;45348;-76
2022/08/28 09:46:16;;;;;;;;;12.00;12.00;;;;;23.18;56.36;101296.00;5034666;28;45329;-76
2022/08/28 09:48:45;;;;;;;;;11.33;11.33;;;;;23.24;56.94;101296.88;5033654;28;46153;-77
2022/08/28 09:51:26;;;;;;;;;16.00;15.67;;;;;23.35;56.37;101284.31;5020305;28;45897;-75
2022/08/28 09:53:55;;;;;;;;;14.33;14.00;;;;;23.48;55.69;101292.16;5016019;28;45598;-76
2022/08/28 09:56:31;;;;;;;;;16.00;16.00;;;;;23.59;55.64;101298.56;5017866;28;45328;-76
2022/08/28 09:59:20;;;;;;;;;11.33;11.33;;;;;23.67;55.14;101284.56;5017700;28;46078;-77
2022/08/28 10:01:46;;;;;;;;;11.33;10.00;;;;;23.82;54.94;101296.69;5032754;28;45369;-74
2022/08/28 10:04:14;;;;;;;;;14.33;13.00;;;;;23.98;55.25;101295.03;5018059;28;45436;-78
2022/08/28 10:06:43;;;;;;;;;12.00;12.00;;;;;24.02;54.49;101289.88;5032862;28;46242;-75
2022/08/28 10:09:37;;;;;;;;;11.67;10.67;;;;;24.09;54.16;101283.19;5031957;28;45384;-76
2022/08/28 10:12:30;;;;;;;;;12.67;12.67;;;;;24.16;54.18;101279.50;5029707;27;45424;-75
2022/08/28 10:15:01;;;;;;;;;10.33;10.33;;;;;24.31;53.84;101290.56;5021354;28;45530;-76
2022/08/28 10:17:38;;;;;;;;;12.00;12.00;;;;;24.40;53.67;101284.66;5023434;28;45553;-75
2022/08/28 10:20:19;;;;;;;;;12.33;11.00;;;;;24.44;53.07;101293.94;5017956;28;45482;-76
2022/08/28 10:23:14;;;;;;;;;11.00;11.00;;;;;24.48;53.07;101291.56;5017819;28;45242;-74
2022/08/28 10:26:15;;;;;;;;;9.00;9.00;;;;;24.56;53.07;101289.19;5025717;28;45385;-75
2022/08/28 10:28:55;;;;;;;;;10.33;10.33;;;;;24.68;52.97;101294.47;5014159;28;45888;-74
2022/08/28 10:31:32;;;;;;;;;11.00;10.00;;;;;24.78;52.57;101291.03;5017736;28;45278;-76
2022/08/28 10:34:12;;;;;;;;;10.33;10.33;;;;;24.94;52.84;101283.06;5023626;28;45314;-76
2022/08/28 10:36:38;;;;;;;;;15.33;13.00;;;;;25.15;52.21;101277.78;5022752;28;45533;-76
2022/08/28 10:39:29;;;;;;;;;10.00;10.00;;;;;25.31;52.44;101274.09;5017555;28;45359;-75
2022/08/28 10:41:59;;;;;;;;;10.67;10.67;;;;;25.44;51.09;101277.44;5017577;28;46732;-75
2022/08/28 10:44:51;;;;;;;;;11.33;11.33;;;;;25.49;50.91;101277.47;5017994;28;45336;-76
2022/08/28 10:47:20;;;;;;;;;9.00;9.00;;;;;25.52;50.10;101281.56;5029762;28;45301;-76
2022/08/28 10:49:51;;;;;;;;;10.33;9.67;;;;;25.54;50.15;101284.84;5017508;28;45292;-75
2022/08/28 10:52:25;;;;;;;;;9.33;9.00;;;;;25.68;49.85;101286.03;5026548;28;45511;-77
2022/08/28 10:55:06;;;;;;;;;11.00;10.67;;;;;25.84;49.77;101267.91;5031465;28;45334;-76
2022/08/28 10:57:47;;;;;;;;;9.33;9.33;;;;;25.97;49.60;101271.19;5017282;28;45483;-77
2022/08/28 11:00:15;;;;;;;;;10.33;9.67;;;;;26.08;49.43;101288.41;5036298;28;46441;-75
2022/08/28 11:02:44;;;;;;;;;10.67;10.33;;;;;26.18;48.93;101282.16;5035417;28;47757;-75
2022/08/28 11:05:11;;;;;;;;;9.33;9.33;;;;;26.33;48.44;101267.81;5034140;28;45340;-75
2022/08/28 11:07:43;;;;;;;;;8.67;8.33;;;;;26.54;48.02;101271.41;5036853;28;45304;-76
2022/08/28 11:10:18;;;;;;;;;10.33;9.33;;;;;26.80;47.19;101278.78;5037032;28;45273;-76
2022/08/28 11:12:44;;;;;;;;;9.00;9.00;;;;;26.98;46.87;101266.56;5022720;27;48361;-75
2022/08/28 11:15:27;;;;;;;;;9.00;9.00;;;;;27.24;46.65;101274.72;5023644;28;45421;-76
2022/08/28 11:17:55;;;;;;;;;8.00;8.00;;;;;27.40;45.94;101275.50;5028934;28;45434;-75
2022/08/28 11:20:24;;;;;;;;;10.00;10.00;;;;;27.53;46.52;101274.09;5022648;28;45570;-76
2022/08/28 11:22:49;;;;;;;;;10.33;10.33;;;;;27.68;46.47;101273.28;5031172;28;47205;-76
2022/08/28 11:25:32;;;;;;;;;29.33;28.00;;;;;27.70;45.25;101271.09;5022123;28;45376;-75
2022/08/28 11:28:23;;;;;;;;;9.67;9.67;;;;;27.82;45.25;101275.41;5034536;28;45495;-75